Ft Mitchell, Kentucky
Current Conditions -  °F | °C
As of 4:34 AM on Wednesday 22 Oct 2014 (Local Time) from KI69 Reporting Station
Overcast Overcast  
Wind Chill: 46°   Ceiling: 4000
Heat Index: 46°   Visibility: 10mi
Dew Point: 39°   Wind: 3mph
Humidity: 76%   Direction: 10°N
Pressure: 30.19"   Gusts: NA
Location:  39.03°N, 84.559°W
Report Text: KI69 220834Z AUTO 01003KT 10SM OVC040 08/04 A3019 RMK AO1
Loading
Personal Weather Stations






























Interactive Weather Map
Tropical Storm Tracking
New forecast layout! Learn more

10-Day Weather Forecast

Advertisements
Track Severe Weather on mobile